Wetterdaten: November 2012
Datum Temp Feuchte Luftdruck Regen Wind Richtung Sonnenschein UV Solar Windben
01.11.2012 6,0 C 84 % 987,6 hPa 0,2 l/m 10,4 km/h S-SO 1,83 h 0,9 UV-I 111 W/m 19,3 km/h
02.11.2012 6,1 C 84 % 996,8 hPa 2,4 l/m 10,2 km/h S 2,33 h 0,8 UV-I 136 W/m 22,1 km/h
03.11.2012 4,4 C 90 % 1000,5 hPa 1,8 l/m 3,5 km/h S 0,00 h 0,5 UV-I 38 W/m 7,2 km/h
04.11.2012 5,8 C 89 % 999,7 hPa 1,8 l/m 9,2 km/h S-SO 1,17 h 0,6 UV-I 73 W/m 16,9 km/h
05.11.2012 5,2 C 94 % 1002,7 hPa 2,0 l/m 4,2 km/h S-SW 0,00 h 0,6 UV-I 45 W/m 18,9 km/h
06.11.2012 5,1 C 92 % 1015,1 hPa 4,6 l/m 6,6 km/h W 0,83 h 0,6 UV-I 72 W/m 24,2 km/h
07.11.2012 7,6 C 95 % 1021,3 hPa 5,6 l/m 11,7 km/h W-SW 0,00 h 0,5 UV-I 28 W/m 26,1 km/h
08.11.2012 7,3 C 90 % 1016,8 hPa 0,0 l/m 2,3 km/h S-SW 0,00 h 0,6 UV-I 42 W/m 15,6 km/h
09.11.2012 6,7 C 87 % 1013,1 hPa 1,2 l/m 10,0 km/h S-SO 0,00 h 0,6 UV-I 57 W/m 16,5 km/h
10.11.2012 7,9 C 94 % 1001,9 hPa 6,2 l/m 9,0 km/h S-SO 0,00 h 0,5 UV-I 32 W/m 14,9 km/h
11.11.2012 5,8 C 94 % 1013,3 hPa 0,2 l/m 0,6 km/h S 0,00 h 0,6 UV-I 55 W/m 4,4 km/h
12.11.2012 3,8 C 91 % 1025,9 hPa 0,0 l/m 0,0 km/h S-SW 1,25 h 0,6 UV-I 88 W/m 0,0 km/h
13.11.2012 3,6 C 90 % 1031,6 hPa 0,2 l/m 0,9 km/h S 5,92 h 0,8 UV-I 168 W/m 2,8 km/h
14.11.2012 2,3 C 90 % 1028,2 hPa 0,0 l/m 1,8 km/h SO 6,00 h 0,8 UV-I 170 W/m 4,8 km/h
15.11.2012 0,4 C 97 % 1023,6 hPa 0,2 l/m 0,3 km/h S-SO 0,00 h 0,5 UV-I 47 W/m 1,2 km/h
16.11.2012 0,2 C 95 % 1018,3 hPa 0,0 l/m 4,9 km/h S-SO 0,00 h 0,5 UV-I 48 W/m 12,9 km/h
17.11.2012 1,6 C 93 % 1011,5 hPa 0,4 l/m 2,2 km/h S-SO 4,58 h 0,8 UV-I 146 W/m 6,8 km/h
18.11.2012 5,8 C 98 % 1014,3 hPa 2,0 l/m 0,0 km/h S 0,00 h 0,0 UV-I 28 W/m 0,4 km/h
19.11.2012 6,3 C 96 % 1017,6 hPa 0,0 l/m 9,2 km/h S-SO 1,75 h 0,7 UV-I 91 W/m 13,7 km/h
20.11.2012 3,3 C 95 % 1019,0 hPa 0,2 l/m 7,8 km/h S-SO 5,75 h 0,7 UV-I 152 W/m 15,3 km/h
21.11.2012 3,4 C 95 % 1015,8 hPa 0,0 l/m 8,4 km/h S-SO 0,67 h 0,7 UV-I 80 W/m 14,1 km/h
22.11.2012 5,8 C 88 % 1021,6 hPa 0,0 l/m 6,6 km/h S 5,33 h 0,7 UV-I 146 W/m 16,1 km/h
23.11.2012 5,8 C 95 % 1017,4 hPa 6,6 l/m 6,4 km/h S-SO 0,58 h 0,5 UV-I 58 W/m 11,3 km/h
24.11.2012 6,5 C 98 % 1016,6 hPa 1,6 l/m 5,6 km/h SO 0,00 h 0,5 UV-I 39 W/m 17,7 km/h
25.11.2012 7,5 C 80 % 1010,0 hPa 0,4 l/m 14,4 km/h S 1,08 h 0,6 UV-I 64 W/m 29,8 km/h
26.11.2012 5,3 C 96 % 1005,5 hPa 6,0 l/m 5,6 km/h S 0,17 h 0,5 UV-I 37 W/m 11,7 km/h
27.11.2012 5,4 C 93 % 1005,1 hPa 2,4 l/m 0,0 km/h S 0,00 h 0,5 UV-I 63 W/m 0,0 km/h
28.11.2012 3,7 C 96 % 1004,1 hPa 0,0 l/m 1,1 km/h N 0,33 h 0,6 UV-I 56 W/m 4,0 km/h
29.11.2012 1,2 C 95 % 1002,2 hPa 1,2 l/m 7,4 km/h N-NW 0,00 h 0,0 UV-I 24 W/m 18,9 km/h
30.11.2012 -1,1 C 94 % 1009,8 hPa 0,0 l/m 0,0 km/h W-NW 1,58 h 0,5 UV-I 80 W/m 0,0 km/h
Min-Datum 30.11.12 02.11.12 01.11.12 21 Tage 01.11.12 - - - - 01.11.12
Min-Zeit 20:30 13:30 14:40 - 00:00 - - - - 00:00
Minimum -2,9 C 64 % 984,4 hPa - 0,0 km/h - - - - 0,0 km/h
Max-Datum 25.11.12 19.11.12 13.11.12 23.11.12 02.11.12 - 14.11.12 02.11.12 02.11.12 02.11.12
Max-Zeit 11:15 23:10 18:25 01:00 13:25 - 15:15 11:45 11:10 11:40
Maximum 11,2 C 100 % 1032,2 hPa 6,6 l/m 32,0 km/h
S
- 5,92 h 1,3 UV-I 454 W/m 49,9 km/h
S-SW
Durchschnitt 4,6 C 92 % 1012,2 hPa #47,2 l/m 5,3 km/h S-SO #41:10 h 0,6 UV-I 76 W/m 12,3 km/h

Durchschnitt Minimum Temp.2,4 C
Durchschnitt Maximum Temp.7,3 C